sensor_id;sensor_type;location;lat;lon;timestamp;pressure;altitude;pressure_sealevel;temperature
40199;BMP280;25906;43.536;26.068;2023-06-22T00:01:29;99179.50;;;21.64
40199;BMP280;25906;43.536;26.068;2023-06-22T00:04:15;99176.56;;;21.62
40199;BMP280;25906;43.536;26.068;2023-06-22T00:07:00;99183.44;;;21.63
40199;BMP280;25906;43.536;26.068;2023-06-22T00:09:46;99181.22;;;21.61
40199;BMP280;25906;43.536;26.068;2023-06-22T00:12:31;99181.94;;;21.56
40199;BMP280;25906;43.536;26.068;2023-06-22T00:15:17;99174.81;;;21.48
40199;BMP280;25906;43.536;26.068;2023-06-22T00:18:02;99187.69;;;20.99
40199;BMP280;25906;43.536;26.068;2023-06-22T00:20:48;99176.31;;;20.73
40199;BMP280;25906;43.536;26.068;2023-06-22T00:23:33;99176.13;;;20.82
40199;BMP280;25906;43.536;26.068;2023-06-22T00:26:19;99180.69;;;20.71
40199;BMP280;25906;43.536;26.068;2023-06-22T00:29:05;99177.97;;;20.59
40199;BMP280;25906;43.536;26.068;2023-06-22T00:31:51;99177.50;;;20.66
40199;BMP280;25906;43.536;26.068;2023-06-22T00:34:36;99169.25;;;20.76
40199;BMP280;25906;43.536;26.068;2023-06-22T00:37:22;99165.81;;;20.75
40199;BMP280;25906;43.536;26.068;2023-06-22T00:40:10;99166.28;;;20.68
40199;BMP280;25906;43.536;26.068;2023-06-22T00:42:57;99161.38;;;20.72
40199;BMP280;25906;43.536;26.068;2023-06-22T00:45:43;99165.34;;;20.77
40199;BMP280;25906;43.536;26.068;2023-06-22T00:48:28;99166.56;;;20.81
40199;BMP280;25906;43.536;26.068;2023-06-22T00:51:14;99172.13;;;20.61
40199;BMP280;25906;43.536;26.068;2023-06-22T00:54:00;99170.66;;;20.23
40199;BMP280;25906;43.536;26.068;2023-06-22T00:56:45;99165.09;;;20.32
40199;BMP280;25906;43.536;26.068;2023-06-22T00:59:31;99163.47;;;20.46
40199;BMP280;25906;43.536;26.068;2023-06-22T01:02:17;99166.47;;;20.53
40199;BMP280;25906;43.536;26.068;2023-06-22T01:05:03;99166.00;;;20.60
40199;BMP280;25906;43.536;26.068;2023-06-22T01:16:56;99155.47;;;20.57
40199;BMP280;25906;43.536;26.068;2023-06-22T01:19:48;99152.00;;;20.51
40199;BMP280;25906;43.536;26.068;2023-06-22T01:29:16;99145.72;;;20.23
40199;BMP280;25906;43.536;26.068;2023-06-22T01:32:03;99137.44;;;20.26
40199;BMP280;25906;43.536;26.068;2023-06-22T01:34:49;99142.53;;;20.19
40199;BMP280;25906;43.536;26.068;2023-06-22T01:37:36;99138.03;;;20.04
40199;BMP280;25906;43.536;26.068;2023-06-22T01:40:23;99141.78;;;20.18
40199;BMP280;25906;43.536;26.068;2023-06-22T01:43:09;99150.06;;;20.15
40199;BMP280;25906;43.536;26.068;2023-06-22T01:45:56;99159.41;;;20.19
40199;BMP280;25906;43.536;26.068;2023-06-22T01:48:42;99160.59;;;20.18
40199;BMP280;25906;43.536;26.068;2023-06-22T01:51:28;99158.16;;;20.20
40199;BMP280;25906;43.536;26.068;2023-06-22T01:54:13;99165.97;;;20.18
40199;BMP280;25906;43.536;26.068;2023-06-22T01:56:59;99166.19;;;20.15
40199;BMP280;25906;43.536;26.068;2023-06-22T02:00:04;99172.84;;;20.25
40199;BMP280;25906;43.536;26.068;2023-06-22T02:03:09;99173.09;;;20.21
40199;BMP280;25906;43.536;26.068;2023-06-22T02:06:01;99176.44;;;20.11
40199;BMP280;25906;43.536;26.068;2023-06-22T02:08:54;99177.25;;;20.22
40199;BMP280;25906;43.536;26.068;2023-06-22T02:11:42;99184.28;;;20.14
40199;BMP280;25906;43.536;26.068;2023-06-22T02:14:29;99188.66;;;20.12
40199;BMP280;25906;43.536;26.068;2023-06-22T02:17:14;99181.03;;;20.04
40199;BMP280;25906;43.536;26.068;2023-06-22T02:20:02;99183.47;;;20.08
40199;BMP280;25906;43.536;26.068;2023-06-22T02:22:49;99188.63;;;20.06
40199;BMP280;25906;43.536;26.068;2023-06-22T02:25:35;99178.09;;;20.02
40199;BMP280;25906;43.536;26.068;2023-06-22T02:28:20;99187.00;;;19.88
40199;BMP280;25906;43.536;26.068;2023-06-22T02:31:06;99187.25;;;19.90
40199;BMP280;25906;43.536;26.068;2023-06-22T02:33:51;99196.03;;;19.91
40199;BMP280;25906;43.536;26.068;2023-06-22T02:36:36;99200.22;;;19.92
40199;BMP280;25906;43.536;26.068;2023-06-22T02:39:25;99210.28;;;19.97
40199;BMP280;25906;43.536;26.068;2023-06-22T02:42:11;99216.13;;;19.95
40199;BMP280;25906;43.536;26.068;2023-06-22T02:44:56;99215.66;;;19.97
40199;BMP280;25906;43.536;26.068;2023-06-22T02:47:41;99222.28;;;20.01
40199;BMP280;25906;43.536;26.068;2023-06-22T02:50:27;99219.09;;;19.97
40199;BMP280;25906;43.536;26.068;2023-06-22T02:53:12;99222.72;;;19.94
40199;BMP280;25906;43.536;26.068;2023-06-22T02:55:58;99221.53;;;20.01
40199;BMP280;25906;43.536;26.068;2023-06-22T02:58:43;99223.03;;;20.02
40199;BMP280;25906;43.536;26.068;2023-06-22T03:01:29;99220.13;;;20.05
40199;BMP280;25906;43.536;26.068;2023-06-22T03:04:15;99222.81;;;20.05
40199;BMP280;25906;43.536;26.068;2023-06-22T03:07:01;99223.06;;;20.07
40199;BMP280;25906;43.536;26.068;2023-06-22T03:09:46;99216.75;;;20.11
40199;BMP280;25906;43.536;26.068;2023-06-22T03:12:32;99234.41;;;20.23
40199;BMP280;25906;43.536;26.068;2023-06-22T03:15:17;99236.84;;;20.21
40199;BMP280;25906;43.536;26.068;2023-06-22T03:18:05;99228.78;;;20.52
40199;BMP280;25906;43.536;26.068;2023-06-22T03:20:50;99238.19;;;20.73
40199;BMP280;25906;43.536;26.068;2023-06-22T03:23:36;99228.69;;;20.83
40199;BMP280;25906;43.536;26.068;2023-06-22T03:26:21;99233.50;;;21.16
40199;BMP280;25906;43.536;26.068;2023-06-22T03:29:08;99236.53;;;21.46
40199;BMP280;25906;43.536;26.068;2023-06-22T03:31:53;99225.75;;;21.46
40199;BMP280;25906;43.536;26.068;2023-06-22T03:34:39;99234.38;;;21.66
40199;BMP280;25906;43.536;26.068;2023-06-22T03:37:25;99224.34;;;21.72
40199;BMP280;25906;43.536;26.068;2023-06-22T03:40:11;99233.41;;;22.03
40199;BMP280;25906;43.536;26.068;2023-06-22T03:42:56;99238.56;;;22.17
40199;BMP280;25906;43.536;26.068;2023-06-22T03:45:42;99241.19;;;22.45
40199;BMP280;25906;43.536;26.068;2023-06-22T03:48:30;99238.25;;;22.48
40199;BMP280;25906;43.536;26.068;2023-06-22T03:51:15;99240.72;;;22.41
40199;BMP280;25906;43.536;26.068;2023-06-22T03:54:01;99239.38;;;22.92
40199;BMP280;25906;43.536;26.068;2023-06-22T03:56:46;99238.56;;;23.08
40199;BMP280;25906;43.536;26.068;2023-06-22T03:59:31;99233.72;;;23.36
40199;BMP280;25906;43.536;26.068;2023-06-22T04:02:17;99230.44;;;23.49
40199;BMP280;25906;43.536;26.068;2023-06-22T04:05:03;99229.00;;;23.48
40199;BMP280;25906;43.536;26.068;2023-06-22T04:07:48;99239.84;;;23.72
40199;BMP280;25906;43.536;26.068;2023-06-22T04:10:34;99242.31;;;22.83
40199;BMP280;25906;43.536;26.068;2023-06-22T04:13:19;99235.75;;;22.62
40199;BMP280;25906;43.536;26.068;2023-06-22T04:16:04;99239.03;;;22.10
40199;BMP280;25906;43.536;26.068;2023-06-22T04:18:50;99237.06;;;22.44
40199;BMP280;25906;43.536;26.068;2023-06-22T04:21:35;99237.69;;;22.78
40199;BMP280;25906;43.536;26.068;2023-06-22T04:24:22;99245.59;;;23.22
40199;BMP280;25906;43.536;26.068;2023-06-22T04:27:08;99247.97;;;23.72
40199;BMP280;25906;43.536;26.068;2023-06-22T04:29:53;99250.94;;;23.68
40199;BMP280;25906;43.536;26.068;2023-06-22T04:32:38;99254.91;;;23.97
40199;BMP280;25906;43.536;26.068;2023-06-22T04:35:25;99254.75;;;24.14
40199;BMP280;25906;43.536;26.068;2023-06-22T04:38:12;99259.78;;;24.28
40199;BMP280;25906;43.536;26.068;2023-06-22T04:40:58;99259.41;;;24.19
40199;BMP280;25906;43.536;26.068;2023-06-22T04:43:43;99265.34;;;24.36
40199;BMP280;25906;43.536;26.068;2023-06-22T04:46:29;99269.84;;;24.52
40199;BMP280;25906;43.536;26.068;2023-06-22T04:49:14;99271.97;;;24.65
40199;BMP280;25906;43.536;26.068;2023-06-22T04:52:01;99273.34;;;24.71
40199;BMP280;25906;43.536;26.068;2023-06-22T04:54:47;99275.09;;;24.69
40199;BMP280;25906;43.536;26.068;2023-06-22T04:57:40;99275.81;;;24.69
40199;BMP280;25906;43.536;26.068;2023-06-22T05:00:26;99280.56;;;24.15
40199;BMP280;25906;43.536;26.068;2023-06-22T05:03:11;99279.44;;;24.53
40199;BMP280;25906;43.536;26.068;2023-06-22T05:05:57;99275.41;;;24.65
40199;BMP280;25906;43.536;26.068;2023-06-22T05:08:42;99280.25;;;24.91
40199;BMP280;25906;43.536;26.068;2023-06-22T05:11:28;99275.97;;;25.20
40199;BMP280;25906;43.536;26.068;2023-06-22T05:14:14;99283.94;;;25.31
40199;BMP280;25906;43.536;26.068;2023-06-22T05:16:59;99285.16;;;25.11
40199;BMP280;25906;43.536;26.068;2023-06-22T05:19:48;99273.59;;;25.10
40199;BMP280;25906;43.536;26.068;2023-06-22T05:22:34;99273.06;;;25.49
40199;BMP280;25906;43.536;26.068;2023-06-22T05:25:19;99285.19;;;25.30
40199;BMP280;25906;43.536;26.068;2023-06-22T05:28:05;99276.50;;;25.50
40199;BMP280;25906;43.536;26.068;2023-06-22T05:30:50;99276.47;;;25.68
40199;BMP280;25906;43.536;26.068;2023-06-22T05:33:36;99288.22;;;26.03
40199;BMP280;25906;43.536;26.068;2023-06-22T05:36:22;99294.72;;;26.26
40199;BMP280;25906;43.536;26.068;2023-06-22T05:39:11;99288.69;;;26.46
40199;BMP280;25906;43.536;26.068;2023-06-22T05:42:00;99290.03;;;26.26
40199;BMP280;25906;43.536;26.068;2023-06-22T05:44:45;99284.84;;;26.41
40199;BMP280;25906;43.536;26.068;2023-06-22T05:47:32;99279.69;;;26.64
40199;BMP280;25906;43.536;26.068;2023-06-22T05:50:17;99282.69;;;26.74
40199;BMP280;25906;43.536;26.068;2023-06-22T05:53:03;99284.22;;;26.95
40199;BMP280;25906;43.536;26.068;2023-06-22T05:55:48;99274.25;;;27.11
40199;BMP280;25906;43.536;26.068;2023-06-22T05:58:35;99285.56;;;27.36
40199;BMP280;25906;43.536;26.068;2023-06-22T06:01:20;99276.38;;;27.05
40199;BMP280;25906;43.536;26.068;2023-06-22T06:04:06;99281.03;;;27.38
40199;BMP280;25906;43.536;26.068;2023-06-22T06:06:54;99271.31;;;27.43
40199;BMP280;25906;43.536;26.068;2023-06-22T06:09:40;99275.09;;;27.60
40199;BMP280;25906;43.536;26.068;2023-06-22T06:12:25;99274.34;;;27.60
40199;BMP280;25906;43.536;26.068;2023-06-22T06:15:10;99269.38;;;27.71
40199;BMP280;25906;43.536;26.068;2023-06-22T06:17:56;99277.69;;;27.66
40199;BMP280;25906;43.536;26.068;2023-06-22T06:20:41;99279.13;;;27.67
40199;BMP280;25906;43.536;26.068;2023-06-22T06:23:27;99275.50;;;27.92
40199;BMP280;25906;43.536;26.068;2023-06-22T06:26:12;99265.63;;;28.10
40199;BMP280;25906;43.536;26.068;2023-06-22T06:28:59;99266.56;;;28.13
40199;BMP280;25906;43.536;26.068;2023-06-22T06:31:45;99269.81;;;28.11
40199;BMP280;25906;43.536;26.068;2023-06-22T06:34:31;99263.97;;;28.43
40199;BMP280;25906;43.536;26.068;2023-06-22T06:37:17;99270.16;;;28.43
40199;BMP280;25906;43.536;26.068;2023-06-22T06:40:06;99270.00;;;28.49
40199;BMP280;25906;43.536;26.068;2023-06-22T06:42:55;99277.28;;;28.54
40199;BMP280;25906;43.536;26.068;2023-06-22T06:45:40;99270.00;;;28.49
40199;BMP280;25906;43.536;26.068;2023-06-22T06:48:26;99274.41;;;28.59
40199;BMP280;25906;43.536;26.068;2023-06-22T06:51:11;99275.19;;;28.75
40199;BMP280;25906;43.536;26.068;2023-06-22T06:53:56;99269.78;;;28.32
40199;BMP280;25906;43.536;26.068;2023-06-22T06:56:42;99276.53;;;28.10
40199;BMP280;25906;43.536;26.068;2023-06-22T06:59:33;99273.06;;;28.10
40199;BMP280;25906;43.536;26.068;2023-06-22T07:02:18;99285.91;;;28.73
40199;BMP280;25906;43.536;26.068;2023-06-22T07:05:04;99273.75;;;28.31
40199;BMP280;25906;43.536;26.068;2023-06-22T07:07:50;99273.50;;;28.57
40199;BMP280;25906;43.536;26.068;2023-06-22T07:10:36;99273.47;;;29.00
40199;BMP280;25906;43.536;26.068;2023-06-22T07:13:21;99272.00;;;29.14
40199;BMP280;25906;43.536;26.068;2023-06-22T07:16:06;99281.25;;;29.04
40199;BMP280;25906;43.536;26.068;2023-06-22T07:18:52;99282.22;;;29.21
40199;BMP280;25906;43.536;26.068;2023-06-22T07:21:37;99282.03;;;29.34
40199;BMP280;25906;43.536;26.068;2023-06-22T07:24:24;99282.03;;;29.57
40199;BMP280;25906;43.536;26.068;2023-06-22T07:27:09;99284.94;;;29.82
40199;BMP280;25906;43.536;26.068;2023-06-22T07:29:57;99289.97;;;30.00
40199;BMP280;25906;43.536;26.068;2023-06-22T07:32:42;99295.25;;;30.13
40199;BMP280;25906;43.536;26.068;2023-06-22T07:35:28;99285.22;;;30.16
40199;BMP280;25906;43.536;26.068;2023-06-22T07:38:14;99291.25;;;30.07
40199;BMP280;25906;43.536;26.068;2023-06-22T07:41:01;99291.88;;;29.45
40199;BMP280;25906;43.536;26.068;2023-06-22T07:43:50;99296.34;;;29.05
40199;BMP280;25906;43.536;26.068;2023-06-22T07:46:36;99296.56;;;30.05
40199;BMP280;25906;43.536;26.068;2023-06-22T07:49:21;99299.81;;;30.11
40199;BMP280;25906;43.536;26.068;2023-06-22T07:52:07;99291.84;;;30.53
40199;BMP280;25906;43.536;26.068;2023-06-22T07:54:52;99287.53;;;30.74
40199;BMP280;25906;43.536;26.068;2023-06-22T07:57:38;99293.28;;;30.86
40199;BMP280;25906;43.536;26.068;2023-06-22T08:00:24;99291.91;;;30.22
40199;BMP280;25906;43.536;26.068;2023-06-22T08:03:09;99284.91;;;29.97
40199;BMP280;25906;43.536;26.068;2023-06-22T08:05:54;99283.69;;;30.77
40199;BMP280;25906;43.536;26.068;2023-06-22T08:08:40;99274.63;;;30.27
40199;BMP280;25906;43.536;26.068;2023-06-22T08:11:25;99276.25;;;30.23
40199;BMP280;25906;43.536;26.068;2023-06-22T08:14:11;99274.22;;;29.61
40199;BMP280;25906;43.536;26.068;2023-06-22T08:16:56;99274.03;;;29.59
40199;BMP280;25906;43.536;26.068;2023-06-22T08:19:42;99276.34;;;30.48
40199;BMP280;25906;43.536;26.068;2023-06-22T08:22:27;99282.19;;;30.52
40199;BMP280;25906;43.536;26.068;2023-06-22T08:25:12;99278.41;;;30.32
40199;BMP280;25906;43.536;26.068;2023-06-22T08:27:58;99284.22;;;30.83
40199;BMP280;25906;43.536;26.068;2023-06-22T08:30:43;99287.16;;;30.70
40199;BMP280;25906;43.536;26.068;2023-06-22T08:33:29;99277.50;;;30.37
40199;BMP280;25906;43.536;26.068;2023-06-22T08:36:15;99285.81;;;29.99
40199;BMP280;25906;43.536;26.068;2023-06-22T08:39:01;99284.00;;;30.02
40199;BMP280;25906;43.536;26.068;2023-06-22T08:41:48;99278.22;;;31.02
40199;BMP280;25906;43.536;26.068;2023-06-22T08:44:33;99274.34;;;31.12
40199;BMP280;25906;43.536;26.068;2023-06-22T08:47:19;99279.34;;;30.74
40199;BMP280;25906;43.536;26.068;2023-06-22T08:50:06;99278.38;;;30.47
40199;BMP280;25906;43.536;26.068;2023-06-22T08:52:53;99287.03;;;30.68
40199;BMP280;25906;43.536;26.068;2023-06-22T08:55:38;99278.06;;;30.75
40199;BMP280;25906;43.536;26.068;2023-06-22T08:58:23;99280.63;;;30.26
40199;BMP280;25906;43.536;26.068;2023-06-22T09:01:09;99280.19;;;29.90
40199;BMP280;25906;43.536;26.068;2023-06-22T09:03:54;99281.31;;;29.64
40199;BMP280;25906;43.536;26.068;2023-06-22T09:06:41;99279.75;;;30.16
40199;BMP280;25906;43.536;26.068;2023-06-22T09:09:30;99280.31;;;30.62
40199;BMP280;25906;43.536;26.068;2023-06-22T09:12:15;99280.41;;;30.39
40199;BMP280;25906;43.536;26.068;2023-06-22T09:15:01;99287.25;;;30.08
40199;BMP280;25906;43.536;26.068;2023-06-22T09:17:47;99287.06;;;30.06
40199;BMP280;25906;43.536;26.068;2023-06-22T09:20:33;99278.69;;;30.59
40199;BMP280;25906;43.536;26.068;2023-06-22T09:23:18;99275.50;;;30.38
40199;BMP280;25906;43.536;26.068;2023-06-22T09:26:05;99285.25;;;30.88
40199;BMP280;25906;43.536;26.068;2023-06-22T09:28:50;99274.66;;;30.60
40199;BMP280;25906;43.536;26.068;2023-06-22T09:31:36;99284.88;;;30.12
40199;BMP280;25906;43.536;26.068;2023-06-22T09:34:22;99283.84;;;29.85
40199;BMP280;25906;43.536;26.068;2023-06-22T09:37:07;99281.28;;;30.49
40199;BMP280;25906;43.536;26.068;2023-06-22T09:39:52;99287.66;;;30.52
40199;BMP280;25906;43.536;26.068;2023-06-22T09:42:38;99269.88;;;30.35
40199;BMP280;25906;43.536;26.068;2023-06-22T09:45:23;99268.63;;;30.69
40199;BMP280;25906;43.536;26.068;2023-06-22T09:48:09;99266.44;;;30.27
40199;BMP280;25906;43.536;26.068;2023-06-22T09:50:55;99271.69;;;30.97
40199;BMP280;25906;43.536;26.068;2023-06-22T09:53:40;99265.34;;;30.63
40199;BMP280;25906;43.536;26.068;2023-06-22T09:56:26;99268.47;;;30.91
40199;BMP280;25906;43.536;26.068;2023-06-22T09:59:15;99259.13;;;30.70
40199;BMP280;25906;43.536;26.068;2023-06-22T10:02:00;99261.72;;;30.92
40199;BMP280;25906;43.536;26.068;2023-06-22T10:04:45;99258.09;;;30.90
40199;BMP280;25906;43.536;26.068;2023-06-22T10:07:31;99259.59;;;30.83
40199;BMP280;25906;43.536;26.068;2023-06-22T10:10:16;99254.38;;;31.19
40199;BMP280;25906;43.536;26.068;2023-06-22T10:13:09;99262.41;;;30.68
40199;BMP280;25906;43.536;26.068;2023-06-22T10:15:58;99260.31;;;30.52
40199;BMP280;25906;43.536;26.068;2023-06-22T10:18:43;99260.94;;;30.67
40199;BMP280;25906;43.536;26.068;2023-06-22T10:21:28;99262.50;;;30.85
40199;BMP280;25906;43.536;26.068;2023-06-22T10:24:14;99261.31;;;31.20
40199;BMP280;25906;43.536;26.068;2023-06-22T10:26:59;99255.78;;;30.47
40199;BMP280;25906;43.536;26.068;2023-06-22T10:29:44;99259.63;;;31.08
40199;BMP280;25906;43.536;26.068;2023-06-22T10:32:30;99258.03;;;31.22
40199;BMP280;25906;43.536;26.068;2023-06-22T10:35:15;99259.75;;;31.35
40199;BMP280;25906;43.536;26.068;2023-06-22T10:38:01;99257.75;;;30.86
40199;BMP280;25906;43.536;26.068;2023-06-22T10:40:46;99244.63;;;31.51
40199;BMP280;25906;43.536;26.068;2023-06-22T10:43:31;99255.31;;;30.33
40199;BMP280;25906;43.536;26.068;2023-06-22T10:46:17;99257.66;;;30.36
40199;BMP280;25906;43.536;26.068;2023-06-22T10:49:02;99253.47;;;30.35
40199;BMP280;25906;43.536;26.068;2023-06-22T10:51:48;99244.06;;;30.86
40199;BMP280;25906;43.536;26.068;2023-06-22T10:54:33;99237.53;;;30.81
40199;BMP280;25906;43.536;26.068;2023-06-22T10:57:19;99241.38;;;30.46
40199;BMP280;25906;43.536;26.068;2023-06-22T11:00:05;99224.88;;;30.69
40199;BMP280;25906;43.536;26.068;2023-06-22T11:02:51;99228.63;;;31.30
40199;BMP280;25906;43.536;26.068;2023-06-22T11:05:37;99226.84;;;31.42
40199;BMP280;25906;43.536;26.068;2023-06-22T11:08:22;99229.59;;;31.59
40199;BMP280;25906;43.536;26.068;2023-06-22T11:11:07;99233.38;;;31.64
40199;BMP280;25906;43.536;26.068;2023-06-22T11:13:53;99228.88;;;31.76
40199;BMP280;25906;43.536;26.068;2023-06-22T11:16:38;99235.78;;;31.43
40199;BMP280;25906;43.536;26.068;2023-06-22T11:19:23;99227.59;;;31.60
40199;BMP280;25906;43.536;26.068;2023-06-22T11:22:09;99239.16;;;31.51
40199;BMP280;25906;43.536;26.068;2023-06-22T11:24:54;99235.97;;;31.62
40199;BMP280;25906;43.536;26.068;2023-06-22T11:27:39;99236.69;;;31.79
40199;BMP280;25906;43.536;26.068;2023-06-22T11:30:25;99229.44;;;31.40
40199;BMP280;25906;43.536;26.068;2023-06-22T11:33:10;99224.50;;;31.22
40199;BMP280;25906;43.536;26.068;2023-06-22T11:35:55;99235.31;;;30.87
40199;BMP280;25906;43.536;26.068;2023-06-22T11:38:42;99224.91;;;30.93
40199;BMP280;25906;43.536;26.068;2023-06-22T11:41:28;99240.16;;;30.72
40199;BMP280;25906;43.536;26.068;2023-06-22T11:44:13;99231.03;;;31.01
40199;BMP280;25906;43.536;26.068;2023-06-22T11:46:58;99233.47;;;31.14
40199;BMP280;25906;43.536;26.068;2023-06-22T11:49:46;99230.56;;;30.88
40199;BMP280;25906;43.536;26.068;2023-06-22T11:52:33;99223.88;;;31.48
40199;BMP280;25906;43.536;26.068;2023-06-22T11:55:18;99216.13;;;31.37
40199;BMP280;25906;43.536;26.068;2023-06-22T11:58:03;99224.72;;;30.91
40199;BMP280;25906;43.536;26.068;2023-06-22T12:00:50;99225.63;;;30.69
40199;BMP280;25906;43.536;26.068;2023-06-22T12:04:01;99223.44;;;30.28
40199;BMP280;25906;43.536;26.068;2023-06-22T12:06:50;99231.31;;;30.56
40199;BMP280;25906;43.536;26.068;2023-06-22T12:09:35;99224.50;;;31.22
40199;BMP280;25906;43.536;26.068;2023-06-22T12:12:21;99218.53;;;31.50
40199;BMP280;25906;43.536;26.068;2023-06-22T12:15:07;99217.09;;;31.66
40199;BMP280;25906;43.536;26.068;2023-06-22T12:17:53;99224.16;;;30.68
40199;BMP280;25906;43.536;26.068;2023-06-22T12:20:38;99224.66;;;30.74
40199;BMP280;25906;43.536;26.068;2023-06-22T12:23:24;99212.50;;;31.17
40199;BMP280;25906;43.536;26.068;2023-06-22T12:26:09;99216.16;;;31.12
40199;BMP280;25906;43.536;26.068;2023-06-22T12:28:55;99215.38;;;31.19
40199;BMP280;25906;43.536;26.068;2023-06-22T12:31:40;99210.00;;;30.55
40199;BMP280;25906;43.536;26.068;2023-06-22T12:34:26;99221.13;;;30.17
40199;BMP280;25906;43.536;26.068;2023-06-22T12:37:12;99216.94;;;30.16
40199;BMP280;25906;43.536;26.068;2023-06-22T12:39:57;99212.22;;;30.09
40199;BMP280;25906;43.536;26.068;2023-06-22T12:42:42;99202.31;;;30.36
40199;BMP280;25906;43.536;26.068;2023-06-22T12:45:28;99206.38;;;30.20
40199;BMP280;25906;43.536;26.068;2023-06-22T12:48:16;99206.84;;;29.94
40199;BMP280;25906;43.536;26.068;2023-06-22T12:51:02;99196.47;;;29.92
40199;BMP280;25906;43.536;26.068;2023-06-22T12:53:47;99197.19;;;29.93
40199;BMP280;25906;43.536;26.068;2023-06-22T12:56:32;99194.94;;;30.06
40199;BMP280;25906;43.536;26.068;2023-06-22T12:59:18;99195.63;;;30.54
40199;BMP280;25906;43.536;26.068;2023-06-22T13:02:04;99195.00;;;30.31
40199;BMP280;25906;43.536;26.068;2023-06-22T13:04:49;99193.31;;;30.43
40199;BMP280;25906;43.536;26.068;2023-06-22T13:07:34;99183.19;;;30.36
40199;BMP280;25906;43.536;26.068;2023-06-22T13:10:20;99182.56;;;30.77
40199;BMP280;25906;43.536;26.068;2023-06-22T13:13:05;99171.31;;;30.90
40199;BMP280;25906;43.536;26.068;2023-06-22T13:15:51;99176.19;;;30.99
40199;BMP280;25906;43.536;26.068;2023-06-22T13:18:37;99194.56;;;30.50
40199;BMP280;25906;43.536;26.068;2023-06-22T13:21:23;99189.22;;;30.59
40199;BMP280;25906;43.536;26.068;2023-06-22T13:24:08;99189.66;;;30.48
40199;BMP280;25906;43.536;26.068;2023-06-22T13:26:53;99181.03;;;30.27
40199;BMP280;25906;43.536;26.068;2023-06-22T13:29:40;99181.22;;;30.78
40199;BMP280;25906;43.536;26.068;2023-06-22T13:32:25;99172.59;;;30.89
40199;BMP280;25906;43.536;26.068;2023-06-22T13:35:11;99178.91;;;30.99
40199;BMP280;25906;43.536;26.068;2023-06-22T13:37:56;99174.06;;;30.90
40199;BMP280;25906;43.536;26.068;2023-06-22T13:40:42;99189.44;;;30.54
40199;BMP280;25906;43.536;26.068;2023-06-22T13:43:27;99166.47;;;30.81
40199;BMP280;25906;43.536;26.068;2023-06-22T13:46:12;99168.69;;;30.51
40199;BMP280;25906;43.536;26.068;2023-06-22T13:48:58;99168.53;;;30.73
40199;BMP280;25906;43.536;26.068;2023-06-22T13:51:43;99167.75;;;30.56
40199;BMP280;25906;43.536;26.068;2023-06-22T13:54:29;99166.22;;;30.87
40199;BMP280;25906;43.536;26.068;2023-06-22T13:57:14;99171.38;;;30.58
40199;BMP280;25906;43.536;26.068;2023-06-22T14:00:00;99162.28;;;30.80
40199;BMP280;25906;43.536;26.068;2023-06-22T14:02:45;99154.88;;;30.73
40199;BMP280;25906;43.536;26.068;2023-06-22T14:05:30;99154.44;;;30.84
40199;BMP280;25906;43.536;26.068;2023-06-22T14:08:16;99155.41;;;30.47
40199;BMP280;25906;43.536;26.068;2023-06-22T14:11:01;99158.66;;;30.53
40199;BMP280;25906;43.536;26.068;2023-06-22T14:13:46;99159.31;;;30.36
40199;BMP280;25906;43.536;26.068;2023-06-22T14:16:32;99150.47;;;30.53
40199;BMP280;25906;43.536;26.068;2023-06-22T14:19:17;99153.88;;;30.61
40199;BMP280;25906;43.536;26.068;2023-06-22T14:22:03;99155.53;;;30.57
40199;BMP280;25906;43.536;26.068;2023-06-22T14:24:49;99144.44;;;30.55
40199;BMP280;25906;43.536;26.068;2023-06-22T14:27:35;99138.28;;;30.71
40199;BMP280;25906;43.536;26.068;2023-06-22T14:30:20;99143.75;;;30.47
40199;BMP280;25906;43.536;26.068;2023-06-22T14:33:06;99137.88;;;30.25
40199;BMP280;25906;43.536;26.068;2023-06-22T14:35:51;99143.44;;;30.10
40199;BMP280;25906;43.536;26.068;2023-06-22T14:38:36;99137.88;;;29.86
40199;BMP280;25906;43.536;26.068;2023-06-22T14:41:22;99140.72;;;30.03
40199;BMP280;25906;43.536;26.068;2023-06-22T14:44:07;99132.09;;;29.82
40199;BMP280;25906;43.536;26.068;2023-06-22T14:46:52;99126.38;;;30.02
40199;BMP280;25906;43.536;26.068;2023-06-22T14:49:38;99121.59;;;30.10
40199;BMP280;25906;43.536;26.068;2023-06-22T14:52:23;99123.13;;;29.89
40199;BMP280;25906;43.536;26.068;2023-06-22T14:55:09;99123.47;;;29.93
40199;BMP280;25906;43.536;26.068;2023-06-22T14:57:54;99117.97;;;30.00
40199;BMP280;25906;43.536;26.068;2023-06-22T15:00:39;99120.69;;;30.08
40199;BMP280;25906;43.536;26.068;2023-06-22T15:03:25;99122.22;;;29.94
40199;BMP280;25906;43.536;26.068;2023-06-22T15:06:13;99118.13;;;29.70
40199;BMP280;25906;43.536;26.068;2023-06-22T15:08:59;99124.31;;;29.63
40199;BMP280;25906;43.536;26.068;2023-06-22T15:11:45;99122.34;;;29.56
40199;BMP280;25906;43.536;26.068;2023-06-22T15:14:30;99120.53;;;29.59
40199;BMP280;25906;43.536;26.068;2023-06-22T15:17:15;99120.72;;;29.45
40199;BMP280;25906;43.536;26.068;2023-06-22T15:20:01;99126.34;;;29.55
40199;BMP280;25906;43.536;26.068;2023-06-22T15:22:48;99122.34;;;29.56
40199;BMP280;25906;43.536;26.068;2023-06-22T15:25:33;99124.53;;;29.58
40199;BMP280;25906;43.536;26.068;2023-06-22T15:28:19;99123.56;;;29.70
40199;BMP280;25906;43.536;26.068;2023-06-22T15:31:04;99126.53;;;29.65
40199;BMP280;25906;43.536;26.068;2023-06-22T15:33:49;99123.59;;;29.63
40199;BMP280;25906;43.536;26.068;2023-06-22T15:36:35;99129.78;;;29.71
40199;BMP280;25906;43.536;26.068;2023-06-22T15:39:20;99124.47;;;29.73
40199;BMP280;25906;43.536;26.068;2023-06-22T15:42:08;99130.69;;;29.73
40199;BMP280;25906;43.536;26.068;2023-06-22T15:44:53;99131.19;;;29.72
40199;BMP280;25906;43.536;26.068;2023-06-22T15:47:39;99138.13;;;29.73
40199;BMP280;25906;43.536;26.068;2023-06-22T15:50:24;99136.81;;;29.81
40199;BMP280;25906;43.536;26.068;2023-06-22T15:53:09;99138.66;;;29.79
40199;BMP280;25906;43.536;26.068;2023-06-22T15:55:55;99134.84;;;29.82
40199;BMP280;25906;43.536;26.068;2023-06-22T15:58:40;99136.44;;;29.77